sensor_id;sensor_type;location;lat;lon;timestamp;pressure;altitude;pressure_sealevel;temperature;humidity
35419;BME280;21525;41.240;16.500;2023-04-25T00:02:21;100738.03;;;22.96;45.48
35419;BME280;21525;41.240;16.500;2023-04-25T00:04:47;100736.59;;;23.05;44.94
35419;BME280;21525;41.240;16.500;2023-04-25T00:07:15;100743.53;;;22.93;45.42
35419;BME280;21525;41.240;16.500;2023-04-25T00:09:41;100733.59;;;22.68;45.96
35419;BME280;21525;41.240;16.500;2023-04-25T00:12:07;100729.78;;;22.87;45.43
35419;BME280;21525;41.240;16.500;2023-04-25T00:14:33;100729.78;;;23.01;45.44
35419;BME280;21525;41.240;16.500;2023-04-25T00:17:00;100731.88;;;23.23;44.71
35419;BME280;21525;41.240;16.500;2023-04-25T00:19:26;100721.97;;;23.52;44.21
35419;BME280;21525;41.240;16.500;2023-04-25T00:21:56;100724.63;;;23.39;44.01
35419;BME280;21525;41.240;16.500;2023-04-25T00:24:22;100726.69;;;23.07;44.99
35419;BME280;21525;41.240;16.500;2023-04-25T00:26:48;100726.66;;;23.21;43.80
35419;BME280;21525;41.240;16.500;2023-04-25T00:29:14;100723.16;;;23.21;44.35
35419;BME280;21525;41.240;16.500;2023-04-25T00:31:40;100728.72;;;22.75;44.73
35419;BME280;21525;41.240;16.500;2023-04-25T00:34:06;100722.22;;;22.81;44.74
35419;BME280;21525;41.240;16.500;2023-04-25T00:36:34;100725.66;;;22.54;45.16
35419;BME280;21525;41.240;16.500;2023-04-25T00:39:01;100725.94;;;22.64;44.81
35419;BME280;21525;41.240;16.500;2023-04-25T00:41:27;100735.09;;;22.87;44.72
35419;BME280;21525;41.240;16.500;2023-04-25T00:43:54;100726.59;;;22.67;45.21
35419;BME280;21525;41.240;16.500;2023-04-25T00:46:21;100731.28;;;22.76;44.76
35419;BME280;21525;41.240;16.500;2023-04-25T00:48:47;100729.03;;;22.85;44.55
35419;BME280;21525;41.240;16.500;2023-04-25T00:51:16;100727.44;;;22.54;45.82
35419;BME280;21525;41.240;16.500;2023-04-25T00:53:42;100728.28;;;22.11;46.34
35419;BME280;21525;41.240;16.500;2023-04-25T00:56:08;100723.38;;;22.48;45.57
35419;BME280;21525;41.240;16.500;2023-04-25T00:58:34;100724.91;;;22.38;45.92
35419;BME280;21525;41.240;16.500;2023-04-25T01:01:00;100720.72;;;22.48;45.68
35419;BME280;21525;41.240;16.500;2023-04-25T01:03:26;100713.97;;;22.85;44.41
35419;BME280;21525;41.240;16.500;2023-04-25T01:05:54;100725.72;;;22.10;45.82
35419;BME280;21525;41.240;16.500;2023-04-25T01:08:23;100709.28;;;22.19;45.92
35419;BME280;21525;41.240;16.500;2023-04-25T01:10:50;100709.69;;;22.41;45.18
35419;BME280;21525;41.240;16.500;2023-04-25T01:13:16;100718.84;;;22.36;45.33
35419;BME280;21525;41.240;16.500;2023-04-25T01:15:43;100717.97;;;22.78;44.80
35419;BME280;21525;41.240;16.500;2023-04-25T01:18:09;100714.00;;;22.42;45.30
35419;BME280;21525;41.240;16.500;2023-04-25T01:20:36;100709.28;;;22.19;45.63
35419;BME280;21525;41.240;16.500;2023-04-25T01:23:03;100708.81;;;22.27;45.48
35419;BME280;21525;41.240;16.500;2023-04-25T01:25:30;100707.56;;;22.46;45.12
35419;BME280;21525;41.240;16.500;2023-04-25T01:27:58;100705.41;;;22.25;45.43
35419;BME280;21525;41.240;16.500;2023-04-25T01:30:26;100707.59;;;22.32;45.36
35419;BME280;21525;41.240;16.500;2023-04-25T01:32:54;100705.69;;;22.20;45.06
35419;BME280;21525;41.240;16.500;2023-04-25T01:35:20;100713.66;;;22.34;45.19
35419;BME280;21525;41.240;16.500;2023-04-25T01:37:47;100708.63;;;22.30;44.88
35419;BME280;21525;41.240;16.500;2023-04-25T01:40:13;100709.66;;;22.13;45.36
35419;BME280;21525;41.240;16.500;2023-04-25T01:42:40;100711.34;;;22.42;44.44
35419;BME280;21525;41.240;16.500;2023-04-25T01:45:08;100715.63;;;22.02;45.27
35419;BME280;21525;41.240;16.500;2023-04-25T01:47:34;100709.56;;;22.29;44.47
35419;BME280;21525;41.240;16.500;2023-04-25T01:50:03;100701.88;;;22.53;44.30
35419;BME280;21525;41.240;16.500;2023-04-25T01:52:31;100709.28;;;22.48;44.22
35419;BME280;21525;41.240;16.500;2023-04-25T01:54:59;100707.50;;;22.05;45.12
35419;BME280;21525;41.240;16.500;2023-04-25T01:57:28;100714.63;;;21.89;44.60
35419;BME280;21525;41.240;16.500;2023-04-25T01:59:59;100716.38;;;22.47;43.99
35419;BME280;21525;41.240;16.500;2023-04-25T02:02:40;100721.78;;;22.03;44.00
35419;BME280;21525;41.240;16.500;2023-04-25T02:05:16;100719.59;;;22.66;43.32
35419;BME280;21525;41.240;16.500;2023-04-25T02:07:43;100716.88;;;22.39;42.83
35419;BME280;21525;41.240;16.500;2023-04-25T02:10:09;100711.78;;;22.77;42.58
35419;BME280;21525;41.240;16.500;2023-04-25T02:12:41;100702.44;;;22.72;42.71
35419;BME280;21525;41.240;16.500;2023-04-25T02:15:13;100708.63;;;22.16;43.77
35419;BME280;21525;41.240;16.500;2023-04-25T02:17:55;100701.25;;;22.35;43.29
35419;BME280;21525;41.240;16.500;2023-04-25T02:20:22;100696.31;;;22.43;43.07
35419;BME280;21525;41.240;16.500;2023-04-25T02:22:48;100686.78;;;22.26;43.33
35419;BME280;21525;41.240;16.500;2023-04-25T02:25:14;100677.28;;;22.51;43.52
35419;BME280;21525;41.240;16.500;2023-04-25T02:27:42;100678.25;;;22.21;43.65
35419;BME280;21525;41.240;16.500;2023-04-25T02:30:08;100675.06;;;22.71;43.21
35419;BME280;21525;41.240;16.500;2023-04-25T02:32:34;100667.69;;;22.62;43.03
35419;BME280;21525;41.240;16.500;2023-04-25T02:35:01;100668.66;;;22.47;43.00
35419;BME280;21525;41.240;16.500;2023-04-25T02:37:30;100670.59;;;22.31;43.39
35419;BME280;21525;41.240;16.500;2023-04-25T02:39:56;100663.97;;;22.79;43.09
35419;BME280;21525;41.240;16.500;2023-04-25T02:42:22;100659.16;;;22.71;42.80
35419;BME280;21525;41.240;16.500;2023-04-25T02:44:49;100658.06;;;23.15;42.13
35419;BME280;21525;41.240;16.500;2023-04-25T02:47:15;100656.09;;;22.92;42.07
35419;BME280;21525;41.240;16.500;2023-04-25T02:49:42;100664.09;;;22.63;42.85
35419;BME280;21525;41.240;16.500;2023-04-25T02:52:08;100661.41;;;22.22;43.38
35419;BME280;21525;41.240;16.500;2023-04-25T02:54:34;100661.03;;;22.28;43.36
35419;BME280;21525;41.240;16.500;2023-04-25T02:57:00;100659.31;;;22.97;42.73
35419;BME280;21525;41.240;16.500;2023-04-25T02:59:34;100660.31;;;22.53;42.73
35419;BME280;21525;41.240;16.500;2023-04-25T03:02:01;100659.66;;;22.50;42.79
35419;BME280;21525;41.240;16.500;2023-04-25T03:04:27;100663.25;;;22.49;42.88
35419;BME280;21525;41.240;16.500;2023-04-25T03:06:53;100654.59;;;22.32;43.30
35419;BME280;21525;41.240;16.500;2023-04-25T03:09:20;100662.91;;;22.40;43.27
35419;BME280;21525;41.240;16.500;2023-04-25T03:11:46;100660.19;;;22.83;42.67
35419;BME280;21525;41.240;16.500;2023-04-25T03:14:12;100662.56;;;22.73;42.98
35419;BME280;21525;41.240;16.500;2023-04-25T03:16:39;100662.50;;;22.46;43.14
35419;BME280;21525;41.240;16.500;2023-04-25T03:19:05;100648.03;;;22.52;43.34
35419;BME280;21525;41.240;16.500;2023-04-25T03:21:32;100658.63;;;22.52;43.05
35419;BME280;21525;41.240;16.500;2023-04-25T03:24:00;100671.34;;;22.04;44.03
35419;BME280;21525;41.240;16.500;2023-04-25T03:26:26;100662.78;;;22.42;43.68
35419;BME280;21525;41.240;16.500;2023-04-25T03:28:51;100666.81;;;22.21;44.25
35419;BME280;21525;41.240;16.500;2023-04-25T03:31:18;100665.47;;;22.13;43.67
35419;BME280;21525;41.240;16.500;2023-04-25T03:33:44;100671.53;;;22.01;44.50
35419;BME280;21525;41.240;16.500;2023-04-25T03:36:10;100667.66;;;22.07;44.36
35419;BME280;21525;41.240;16.500;2023-04-25T03:38:36;100658.91;;;22.62;43.40
35419;BME280;21525;41.240;16.500;2023-04-25T03:41:02;100665.31;;;22.72;43.54
35419;BME280;21525;41.240;16.500;2023-04-25T03:43:41;100670.66;;;22.43;43.99
35419;BME280;21525;41.240;16.500;2023-04-25T03:46:11;100670.91;;;21.82;44.88
35419;BME280;21525;41.240;16.500;2023-04-25T03:48:38;100671.44;;;22.31;44.21
35419;BME280;21525;41.240;16.500;2023-04-25T03:51:09;100666.63;;;22.38;43.99
35419;BME280;21525;41.240;16.500;2023-04-25T03:53:38;100666.56;;;22.66;43.63
35419;BME280;21525;41.240;16.500;2023-04-25T03:56:19;100672.78;;;22.79;43.10
35419;BME280;21525;41.240;16.500;2023-04-25T03:58:50;100669.19;;;22.81;43.42
35419;BME280;21525;41.240;16.500;2023-04-25T04:01:18;100662.97;;;22.53;43.72
35419;BME280;21525;41.240;16.500;2023-04-25T04:03:43;100668.13;;;22.28;44.32
35419;BME280;21525;41.240;16.500;2023-04-25T04:06:09;100676.69;;;22.60;44.09
35419;BME280;21525;41.240;16.500;2023-04-25T04:08:39;100673.72;;;22.37;44.34
35419;BME280;21525;41.240;16.500;2023-04-25T04:11:05;100682.94;;;22.59;44.14
35419;BME280;21525;41.240;16.500;2023-04-25T04:13:31;100686.13;;;22.08;45.13
35419;BME280;21525;41.240;16.500;2023-04-25T04:15:57;100686.38;;;22.46;44.38
35419;BME280;21525;41.240;16.500;2023-04-25T04:18:23;100698.41;;;22.38;44.41
35419;BME280;21525;41.240;16.500;2023-04-25T04:20:49;100689.50;;;23.21;43.71
35419;BME280;21525;41.240;16.500;2023-04-25T04:23:16;100689.97;;;22.45;44.69
35419;BME280;21525;41.240;16.500;2023-04-25T04:25:42;100693.06;;;22.66;44.07
35419;BME280;21525;41.240;16.500;2023-04-25T04:28:36;100695.59;;;22.82;44.21
35419;BME280;21525;41.240;16.500;2023-04-25T04:31:22;100691.28;;;24.74;41.64
35419;BME280;21525;41.240;16.500;2023-04-25T04:33:49;100691.19;;;25.48;39.55
35419;BME280;21525;41.240;16.500;2023-04-25T04:36:16;100682.41;;;26.49;37.99
35419;BME280;21525;41.240;16.500;2023-04-25T04:38:46;100683.06;;;26.85;37.19
35419;BME280;21525;41.240;16.500;2023-04-25T04:41:19;100683.75;;;28.03;36.03
35419;BME280;21525;41.240;16.500;2023-04-25T04:43:53;100676.91;;;29.00;34.18
35419;BME280;21525;41.240;16.500;2023-04-25T04:46:37;100685.38;;;29.25;33.90
35419;BME280;21525;41.240;16.500;2023-04-25T04:49:13;100683.41;;;29.75;32.72
35419;BME280;21525;41.240;16.500;2023-04-25T04:52:00;100677.94;;;28.59;34.53
35419;BME280;21525;41.240;16.500;2023-04-25T04:54:52;100682.13;;;30.26;32.50
35419;BME280;21525;41.240;16.500;2023-04-25T04:57:36;100674.88;;;30.91;31.61
35419;BME280;21525;41.240;16.500;2023-04-25T05:00:18;100671.75;;;30.95;31.45
35419;BME280;21525;41.240;16.500;2023-04-25T05:03:04;100675.50;;;28.96;33.62
35419;BME280;21525;41.240;16.500;2023-04-25T05:05:49;100683.47;;;27.23;36.27
35419;BME280;21525;41.240;16.500;2023-04-25T05:08:31;100684.69;;;26.20;37.92
35419;BME280;21525;41.240;16.500;2023-04-25T05:11:12;100687.44;;;25.85;38.56
35419;BME280;21525;41.240;16.500;2023-04-25T05:13:54;100683.63;;;26.34;38.25
35419;BME280;21525;41.240;16.500;2023-04-25T05:16:42;100696.44;;;25.95;38.83
35419;BME280;21525;41.240;16.500;2023-04-25T05:19:26;100690.34;;;25.82;39.15
35419;BME280;21525;41.240;16.500;2023-04-25T05:22:12;100685.03;;;26.83;37.92
35419;BME280;21525;41.240;16.500;2023-04-25T05:25:04;100678.28;;;27.10;37.24
35419;BME280;21525;41.240;16.500;2023-04-25T05:27:50;100689.66;;;27.76;36.19
35419;BME280;21525;41.240;16.500;2023-04-25T05:30:36;100679.75;;;29.76;33.84
35419;BME280;21525;41.240;16.500;2023-04-25T05:33:16;100672.03;;;30.47;33.08
35419;BME280;21525;41.240;16.500;2023-04-25T05:35:43;100673.34;;;31.59;31.71
35419;BME280;21525;41.240;16.500;2023-04-25T05:38:10;100663.16;;;32.57;30.96
35419;BME280;21525;41.240;16.500;2023-04-25T05:40:54;100666.84;;;33.63;29.65
35419;BME280;21525;41.240;16.500;2023-04-25T05:43:52;100666.41;;;34.31;28.89
35419;BME280;21525;41.240;16.500;2023-04-25T05:46:38;100665.47;;;33.99;28.95
35419;BME280;21525;41.240;16.500;2023-04-25T05:49:13;100669.09;;;34.23;28.71
35419;BME280;21525;41.240;16.500;2023-04-25T05:51:57;100674.91;;;32.98;29.30
35419;BME280;21525;41.240;16.500;2023-04-25T05:54:46;100672.44;;;32.62;30.40
35419;BME280;21525;41.240;16.500;2023-04-25T05:57:25;100670.38;;;32.48;30.58
35419;BME280;21525;41.240;16.500;2023-04-25T05:59:53;100667.84;;;32.21;30.21
35419;BME280;21525;41.240;16.500;2023-04-25T06:02:20;100664.78;;;32.42;30.04
35419;BME280;21525;41.240;16.500;2023-04-25T06:04:50;100664.47;;;33.03;30.14
35419;BME280;21525;41.240;16.500;2023-04-25T06:07:17;100667.56;;;31.98;31.14
35419;BME280;21525;41.240;16.500;2023-04-25T06:09:43;100666.63;;;31.37;31.33
35419;BME280;21525;41.240;16.500;2023-04-25T06:12:09;100663.28;;;30.72;32.45
35419;BME280;21525;41.240;16.500;2023-04-25T06:14:35;100673.53;;;30.59;32.42
35419;BME280;21525;41.240;16.500;2023-04-25T06:17:03;100663.31;;;30.08;33.43
35419;BME280;21525;41.240;16.500;2023-04-25T06:19:35;100659.13;;;29.86;33.58
35419;BME280;21525;41.240;16.500;2023-04-25T06:22:01;100656.19;;;30.54;32.83
35419;BME280;21525;41.240;16.500;2023-04-25T06:24:28;100655.22;;;30.90;32.52
35419;BME280;21525;41.240;16.500;2023-04-25T06:26:54;100667.53;;;30.11;33.39
35419;BME280;21525;41.240;16.500;2023-04-25T06:29:20;100674.41;;;29.57;33.95
35419;BME280;21525;41.240;16.500;2023-04-25T06:31:46;100675.44;;;30.12;33.28
35419;BME280;21525;41.240;16.500;2023-04-25T06:34:12;100675.22;;;29.86;33.65
35419;BME280;21525;41.240;16.500;2023-04-25T06:36:40;100665.63;;;29.74;33.83
35419;BME280;21525;41.240;16.500;2023-04-25T06:39:08;100671.78;;;30.03;33.53
35419;BME280;21525;41.240;16.500;2023-04-25T06:41:34;100662.22;;;30.83;32.58
35419;BME280;21525;41.240;16.500;2023-04-25T06:44:05;100670.44;;;29.70;33.66
35419;BME280;21525;41.240;16.500;2023-04-25T06:46:34;100676.09;;;29.58;34.21
35419;BME280;21525;41.240;16.500;2023-04-25T06:49:03;100670.28;;;29.72;33.43
35419;BME280;21525;41.240;16.500;2023-04-25T06:51:29;100663.75;;;30.31;33.05
35419;BME280;21525;41.240;16.500;2023-04-25T06:53:56;100667.97;;;29.96;32.89
35419;BME280;21525;41.240;16.500;2023-04-25T06:56:35;100665.63;;;29.84;33.50
35419;BME280;21525;41.240;16.500;2023-04-25T06:59:08;100667.88;;;30.25;32.58
35419;BME280;21525;41.240;16.500;2023-04-25T07:01:37;100658.91;;;30.71;32.44
35419;BME280;21525;41.240;16.500;2023-04-25T07:04:07;100662.78;;;31.22;32.19
35419;BME280;21525;41.240;16.500;2023-04-25T07:06:35;100657.47;;;30.95;32.06
35419;BME280;21525;41.240;16.500;2023-04-25T07:09:03;100659.00;;;31.51;30.72
35419;BME280;21525;41.240;16.500;2023-04-25T07:11:30;100649.72;;;31.27;30.18
35419;BME280;21525;41.240;16.500;2023-04-25T07:13:56;100660.81;;;30.61;31.09
35419;BME280;21525;41.240;16.500;2023-04-25T07:16:22;100652.56;;;31.44;30.26
35419;BME280;21525;41.240;16.500;2023-04-25T07:18:51;100652.84;;;31.15;29.95
35419;BME280;21525;41.240;16.500;2023-04-25T07:21:18;100658.47;;;31.29;30.48
35419;BME280;21525;41.240;16.500;2023-04-25T07:23:45;100653.97;;;31.99;29.92
35419;BME280;21525;41.240;16.500;2023-04-25T07:26:15;100653.50;;;31.34;30.41
35419;BME280;21525;41.240;16.500;2023-04-25T07:29:01;100654.03;;;31.64;29.98
35419;BME280;21525;41.240;16.500;2023-04-25T07:31:27;100641.97;;;31.24;30.60
35419;BME280;21525;41.240;16.500;2023-04-25T07:33:53;100636.38;;;31.35;30.48
35419;BME280;21525;41.240;16.500;2023-04-25T07:36:18;100642.03;;;31.50;30.49
35419;BME280;21525;41.240;16.500;2023-04-25T07:38:44;100640.06;;;30.81;30.05
35419;BME280;21525;41.240;16.500;2023-04-25T07:41:10;100635.13;;;31.48;29.53
35419;BME280;21525;41.240;16.500;2023-04-25T07:43:36;100638.75;;;30.85;29.53
35419;BME280;21525;41.240;16.500;2023-04-25T07:46:02;100635.94;;;31.92;29.06
35419;BME280;21525;41.240;16.500;2023-04-25T07:48:31;100632.75;;;32.22;28.53
35419;BME280;21525;41.240;16.500;2023-04-25T07:50:57;100627.09;;;32.42;28.22
35419;BME280;21525;41.240;16.500;2023-04-25T07:53:23;100624.50;;;32.24;27.94
35419;BME280;21525;41.240;16.500;2023-04-25T07:55:57;100636.13;;;31.98;28.11
35419;BME280;21525;41.240;16.500;2023-04-25T07:58:22;100628.63;;;31.32;28.26
35419;BME280;21525;41.240;16.500;2023-04-25T08:00:52;100638.69;;;31.56;28.95
35419;BME280;21525;41.240;16.500;2023-04-25T08:03:44;100642.44;;;31.37;28.67
35419;BME280;21525;41.240;16.500;2023-04-25T08:06:19;100635.38;;;31.36;28.40
35419;BME280;21525;41.240;16.500;2023-04-25T08:08:57;100646.03;;;30.93;28.59
35419;BME280;21525;41.240;16.500;2023-04-25T08:11:29;100638.28;;;31.43;28.54
35419;BME280;21525;41.240;16.500;2023-04-25T08:13:56;100638.31;;;31.69;28.03
35419;BME280;21525;41.240;16.500;2023-04-25T08:16:22;100634.75;;;31.94;27.84
35419;BME280;21525;41.240;16.500;2023-04-25T08:18:47;100631.84;;;32.14;28.30
35419;BME280;21525;41.240;16.500;2023-04-25T08:21:14;100633.16;;;31.76;27.82
35419;BME280;21525;41.240;16.500;2023-04-25T08:23:41;100629.69;;;31.65;28.24
35419;BME280;21525;41.240;16.500;2023-04-25T08:26:21;100630.53;;;31.04;27.98
35419;BME280;21525;41.240;16.500;2023-04-25T08:28:49;100644.34;;;30.92;28.48
35419;BME280;21525;41.240;16.500;2023-04-25T08:31:14;100642.22;;;31.57;27.86
35419;BME280;21525;41.240;16.500;2023-04-25T08:33:50;100636.75;;;31.66;27.64
35419;BME280;21525;41.240;16.500;2023-04-25T08:36:25;100633.06;;;30.70;28.85
35419;BME280;21525;41.240;16.500;2023-04-25T08:38:53;100648.88;;;30.73;28.73
35419;BME280;21525;41.240;16.500;2023-04-25T08:41:19;100643.81;;;31.06;28.23
35419;BME280;21525;41.240;16.500;2023-04-25T08:43:48;100648.03;;;30.18;28.69
35419;BME280;21525;41.240;16.500;2023-04-25T08:46:17;100642.06;;;30.79;28.55
35419;BME280;21525;41.240;16.500;2023-04-25T08:49:03;100645.88;;;30.77;28.30
35419;BME280;21525;41.240;16.500;2023-04-25T08:51:32;100643.06;;;31.31;28.20
35419;BME280;21525;41.240;16.500;2023-04-25T08:54:09;100648.88;;;31.09;28.28
35419;BME280;21525;41.240;16.500;2023-04-25T08:56:40;100652.78;;;31.50;28.05
35419;BME280;21525;41.240;16.500;2023-04-25T08:59:07;100651.84;;;31.85;27.57
35419;BME280;21525;41.240;16.500;2023-04-25T09:01:35;100646.56;;;32.27;27.23
35419;BME280;21525;41.240;16.500;2023-04-25T09:04:01;100656.75;;;32.16;27.24
35419;BME280;21525;41.240;16.500;2023-04-25T09:06:29;100652.59;;;32.71;27.33
35419;BME280;21525;41.240;16.500;2023-04-25T09:09:07;100641.50;;;31.98;27.79
35419;BME280;21525;41.240;16.500;2023-04-25T09:11:34;100644.00;;;31.92;28.22
35419;BME280;21525;41.240;16.500;2023-04-25T09:14:30;100645.47;;;32.46;27.29
35419;BME280;21525;41.240;16.500;2023-04-25T09:17:18;100643.75;;;31.77;28.00
35419;BME280;21525;41.240;16.500;2023-04-25T09:19:50;100641.19;;;32.78;27.13
35419;BME280;21525;41.240;16.500;2023-04-25T09:22:28;100646.81;;;31.82;27.95
35419;BME280;21525;41.240;16.500;2023-04-25T09:24:54;100647.03;;;31.45;28.23
35419;BME280;21525;41.240;16.500;2023-04-25T09:27:23;100646.81;;;31.64;28.04
35419;BME280;21525;41.240;16.500;2023-04-25T09:29:59;100643.28;;;31.82;28.48
35419;BME280;21525;41.240;16.500;2023-04-25T09:32:38;100628.84;;;31.91;28.36
35419;BME280;21525;41.240;16.500;2023-04-25T09:35:04;100636.47;;;31.69;28.58
35419;BME280;21525;41.240;16.500;2023-04-25T09:37:30;100636.81;;;32.00;27.88
35419;BME280;21525;41.240;16.500;2023-04-25T09:40:05;100639.50;;;31.49;28.09
35419;BME280;21525;41.240;16.500;2023-04-25T09:42:35;100636.16;;;31.55;28.52
35419;BME280;21525;41.240;16.500;2023-04-25T09:45:03;100630.09;;;32.81;27.82
35419;BME280;21525;41.240;16.500;2023-04-25T09:47:37;100625.38;;;31.47;28.11
35419;BME280;21525;41.240;16.500;2023-04-25T09:50:13;100611.34;;;32.13;27.34
35419;BME280;21525;41.240;16.500;2023-04-25T09:52:42;100616.28;;;30.86;28.78
35419;BME280;21525;41.240;16.500;2023-04-25T09:55:14;100616.06;;;31.15;28.50
35419;BME280;21525;41.240;16.500;2023-04-25T09:57:43;100622.88;;;31.10;28.51
35419;BME280;21525;41.240;16.500;2023-04-25T10:00:12;100610.66;;;31.59;27.79
35419;BME280;21525;41.240;16.500;2023-04-25T10:02:42;100611.97;;;31.72;27.46
35419;BME280;21525;41.240;16.500;2023-04-25T10:05:18;100623.63;;;31.20;28.17
35419;BME280;21525;41.240;16.500;2023-04-25T10:07:44;100610.28;;;31.54;28.07
35419;BME280;21525;41.240;16.500;2023-04-25T10:10:15;100619.84;;;30.59;28.75
35419;BME280;21525;41.240;16.500;2023-04-25T10:12:42;100621.25;;;31.34;28.53
35419;BME280;21525;41.240;16.500;2023-04-25T10:15:10;100620.13;;;30.29;29.55
35419;BME280;21525;41.240;16.500;2023-04-25T10:17:36;100618.25;;;31.20;29.15
35419;BME280;21525;41.240;16.500;2023-04-25T10:20:02;100610.03;;;31.65;28.84
35419;BME280;21525;41.240;16.500;2023-04-25T10:22:32;100614.88;;;31.61;28.54
35419;BME280;21525;41.240;16.500;2023-04-25T10:25:00;100604.44;;;31.84;28.02
35419;BME280;21525;41.240;16.500;2023-04-25T10:27:30;100604.19;;;31.44;28.29
35419;BME280;21525;41.240;16.500;2023-04-25T10:30:05;100600.72;;;31.77;27.28
35419;BME280;21525;41.240;16.500;2023-04-25T10:32:34;100583.25;;;32.15;27.75
35419;BME280;21525;41.240;16.500;2023-04-25T10:35:15;100583.84;;;31.67;27.99
35419;BME280;21525;41.240;16.500;2023-04-25T10:37:57;100573.19;;;31.83;27.83
35419;BME280;21525;41.240;16.500;2023-04-25T10:40:24;100579.53;;;31.48;28.20
35419;BME280;21525;41.240;16.500;2023-04-25T10:42:54;100578.53;;;31.75;27.85
35419;BME280;21525;41.240;16.500;2023-04-25T10:45:20;100567.03;;;31.39;28.20
35419;BME280;21525;41.240;16.500;2023-04-25T10:47:46;100570.09;;;30.55;29.23
35419;BME280;21525;41.240;16.500;2023-04-25T10:50:14;100557.00;;;31.23;29.14
35419;BME280;21525;41.240;16.500;2023-04-25T10:52:40;100559.59;;;31.33;29.02
35419;BME280;21525;41.240;16.500;2023-04-25T10:55:06;100552.00;;;31.80;28.68
35419;BME280;21525;41.240;16.500;2023-04-25T10:57:42;100557.31;;;32.48;28.13
35419;BME280;21525;41.240;16.500;2023-04-25T11:00:18;100563.03;;;32.03;28.78
35419;BME280;21525;41.240;16.500;2023-04-25T11:02:57;100555.88;;;31.60;28.83
35419;BME280;21525;41.240;16.500;2023-04-25T11:07:55;100558.53;;;30.37;32.40
35419;BME280;21525;41.240;16.500;2023-04-25T11:10:32;100558.84;;;30.06;34.04
35419;BME280;21525;41.240;16.500;2023-04-25T11:12:58;100566.50;;;30.01;34.28
35419;BME280;21525;41.240;16.500;2023-04-25T11:15:26;100562.09;;;30.28;33.33
35419;BME280;21525;41.240;16.500;2023-04-25T11:17:52;100549.97;;;30.69;33.17
35419;BME280;21525;41.240;16.500;2023-04-25T11:20:18;100558.97;;;30.15;33.88
35419;BME280;21525;41.240;16.500;2023-04-25T11:22:45;100557.53;;;29.83;34.42
35419;BME280;21525;41.240;16.500;2023-04-25T11:25:13;100560.22;;;29.83;34.80
35419;BME280;21525;41.240;16.500;2023-04-25T11:27:59;100547.56;;;30.03;34.41
35419;BME280;21525;41.240;16.500;2023-04-25T11:30:27;100551.38;;;29.63;35.42
35419;BME280;21525;41.240;16.500;2023-04-25T11:32:52;100543.59;;;30.07;34.54
35419;BME280;21525;41.240;16.500;2023-04-25T11:35:19;100537.41;;;29.97;34.42
35419;BME280;21525;41.240;16.500;2023-04-25T11:37:46;100546.31;;;28.85;35.50
35419;BME280;21525;41.240;16.500;2023-04-25T11:40:12;100539.09;;;29.04;35.40
35419;BME280;21525;41.240;16.500;2023-04-25T11:42:39;100533.69;;;29.43;34.94
35419;BME280;21525;41.240;16.500;2023-04-25T11:45:08;100535.41;;;29.71;34.74
35419;BME280;21525;41.240;16.500;2023-04-25T11:47:35;100525.06;;;29.86;34.27
35419;BME280;21525;41.240;16.500;2023-04-25T11:50:06;100518.38;;;30.63;33.57
35419;BME280;21525;41.240;16.500;2023-04-25T11:52:40;100519.97;;;29.56;34.13
35419;BME280;21525;41.240;16.500;2023-04-25T11:57:33;100523.94;;;27.46;38.34
35419;BME280;21525;41.240;16.500;2023-04-25T12:02:41;100520.88;;;27.30;41.18
35419;BME280;21525;41.240;16.500;2023-04-25T12:05:09;100515.13;;;27.55;40.73
35419;BME280;21525;41.240;16.500;2023-04-25T12:07:35;100528.56;;;25.84;42.63
35419;BME280;21525;41.240;16.500;2023-04-25T12:10:07;100523.22;;;26.82;42.57
35419;BME280;21525;41.240;16.500;2023-04-25T12:12:34;100509.75;;;25.41;46.78
35419;BME280;21525;41.240;16.500;2023-04-25T12:15:26;100510.38;;;25.67;44.73
35419;BME280;21525;41.240;16.500;2023-04-25T12:17:53;100509.66;;;25.76;45.83
35419;BME280;21525;41.240;16.500;2023-04-25T12:20:23;100509.41;;;25.79;45.96
35419;BME280;21525;41.240;16.500;2023-04-25T12:22:50;100512.06;;;26.76;44.50
35419;BME280;21525;41.240;16.500;2023-04-25T12:28:19;100510.25;;;25.68;46.93
35419;BME280;21525;41.240;16.500;2023-04-25T12:31:02;100504.56;;;25.62;49.52
35419;BME280;21525;41.240;16.500;2023-04-25T12:33:30;100499.72;;;26.43;46.45
35419;BME280;21525;41.240;16.500;2023-04-25T12:35:56;100501.19;;;25.71;46.85
35419;BME280;21525;41.240;16.500;2023-04-25T12:40:48;100490.16;;;26.41;42.77
35419;BME280;21525;41.240;16.500;2023-04-25T12:43:14;100486.88;;;26.69;42.24
35419;BME280;21525;41.240;16.500;2023-04-25T12:45:40;100478.16;;;25.81;44.25
35419;BME280;21525;41.240;16.500;2023-04-25T12:48:06;100482.78;;;25.68;43.35
35419;BME280;21525;41.240;16.500;2023-04-25T12:50:31;100480.41;;;26.19;45.36
35419;BME280;21525;41.240;16.500;2023-04-25T12:52:57;100474.53;;;25.49;43.20
35419;BME280;21525;41.240;16.500;2023-04-25T12:55:23;100468.06;;;26.50;42.02
35419;BME280;21525;41.240;16.500;2023-04-25T12:57:49;100474.53;;;25.82;45.52
35419;BME280;21525;41.240;16.500;2023-04-25T13:00:15;100471.56;;;26.07;44.17
35419;BME280;21525;41.240;16.500;2023-04-25T13:02:43;100467.00;;;25.98;44.68
35419;BME280;21525;41.240;16.500;2023-04-25T13:05:09;100468.66;;;26.10;44.73
35419;BME280;21525;41.240;16.500;2023-04-25T13:07:34;100472.94;;;24.66;47.80
35419;BME280;21525;41.240;16.500;2023-04-25T13:10:00;100462.31;;;26.34;44.91